Noodle, Texas
Current Conditions -  °F | °C
As of 10:58 AM on Friday 21 Nov 2014 (Local Time) from KDYS Reporting Station
Scattered Clouds Scattered Clouds  
Wind Chill: 64°   Ceiling: Unl
Heat Index: 64°   Visibility: 10mi
Dew Point: 53°   Wind: 15mph
Humidity: 66%   Direction: 180°S
Pressure: 30.07"   Gusts: 22mph
Location:  32.3913°N, 100.009°W
Report Text: KDYS 211658Z 18013G19KT 10SM SCT024 18/11 A3007 RMK AO2A SLP166 T01780114 $
Loading
Personal Weather Stations






























Interactive Weather Map New forecast layout! Learn more

10-Day Weather Forecast

Advertisements
Track Severe Weather on mobile